Lede, Belgium
Current Conditions -  °F | °C
As of 3:20 AM on Friday 21 Nov 2014 (Local Time) from EBBR Reporting Station
Moderate Fog Moderate Fog  
Wind Chill: 34°   Ceiling: 100
Heat Index: 34°   Visibility: 0.15mi
Dew Point: 32°   Wind: 2mph
Humidity: 93%   Direction: 70°ENE
Pressure: 30.21"   Gusts: NA
Location:  50.97°N, 3.99°E
Report Text: EBBR 210220Z 07002KT 0250 R25L/0275V0450N R25R/0400N R01/0350V1200D FG BKN001 01/00 Q1023 NOSIG
Loading
Personal Weather Stations






























Interactive Weather Map New forecast layout! Learn more

10-Day Weather Forecast

Advertisements
Track Severe Weather on mobile